createdAt,value
2022-12-25T00:01:13.271Z,97427.13
2022-12-25T00:03:47.826Z,97441.41
2022-12-25T00:06:15.312Z,97446.63
2022-12-25T00:08:43.034Z,97456.25
2022-12-25T00:11:14.654Z,97470.50
2022-12-25T00:13:42.718Z,97474.75
2022-12-25T00:16:21.575Z,97480.41
2022-12-25T00:18:49.098Z,97477.31
2022-12-25T00:21:16.162Z,97485.31
2022-12-25T00:23:44.113Z,97490.75
2022-12-25T00:26:15.690Z,97489.50
2022-12-25T00:28:43.161Z,97486.91
2022-12-25T00:31:15.549Z,97480.34
2022-12-25T00:33:45.024Z,97480.97
2022-12-25T00:36:13.710Z,97487.34
2022-12-25T00:38:41.509Z,97485.88
2022-12-25T00:41:14.627Z,97487.88
2022-12-25T00:43:42.846Z,97495.28
2022-12-25T00:46:11.930Z,97497.69
2022-12-25T00:48:39.791Z,97501.53
2022-12-25T00:51:10.807Z,97501.97
2022-12-25T00:53:37.797Z,97489.34
2022-12-25T00:56:08.504Z,97500.41
2022-12-25T00:58:36.220Z,97496.47
2022-12-25T01:01:04.429Z,97505.22
2022-12-25T01:03:31.742Z,97507.13
2022-12-25T01:06:06.505Z,97500.84
2022-12-25T01:08:37.000Z,97501.25
2022-12-25T01:11:09.003Z,97502.81
2022-12-25T01:13:37.567Z,97502.31
2022-12-25T01:16:13.193Z,97503.09
2022-12-25T01:18:40.363Z,97503.50
2022-12-25T01:21:09.250Z,97497.84
2022-12-25T01:23:37.613Z,97501.09
2022-12-25T01:26:10.830Z,97501.81
2022-12-25T01:28:42.997Z,97498.59
2022-12-25T01:31:13.027Z,97502.88
2022-12-25T01:33:42.030Z,97500.28
2022-12-25T01:36:17.842Z,97497.47
2022-12-25T01:38:45.499Z,97496.47
2022-12-25T01:41:14.563Z,97488.28
2022-12-25T01:43:58.710Z,97496.22
2022-12-25T01:46:26.205Z,97499.34
2022-12-25T01:48:56.159Z,97504.16
2022-12-25T01:51:33.320Z,97494.19
2022-12-25T01:54:05.835Z,97488.97
2022-12-25T01:56:35.954Z,97488.66
2022-12-25T01:59:04.798Z,97482.38
2022-12-25T02:01:32.087Z,97484.88
2022-12-25T02:04:25.405Z,97492.81
2022-12-25T02:06:52.869Z,97494.53
2022-12-25T02:09:20.271Z,97494.53
2022-12-25T02:12:00.175Z,97496.31
2022-12-25T02:14:31.405Z,97504.97
2022-12-25T02:17:20.845Z,97506.34
2022-12-25T02:20:25.073Z,97511.38
2022-12-25T02:23:04.013Z,97511.13
2022-12-25T02:25:37.400Z,97518.97
2022-12-25T02:28:17.055Z,97526.13
2022-12-25T02:30:50.155Z,97521.94
2022-12-25T02:37:36.745Z,97527.97
2022-12-25T02:40:20.120Z,97519.22
2022-12-25T02:43:28.134Z,97519.00
2022-12-25T02:46:18.227Z,97517.97
2022-12-25T02:49:10.002Z,97520.72
2022-12-25T02:51:59.996Z,97511.69
2022-12-25T02:54:57.003Z,97514.78
2022-12-25T02:57:48.853Z,97511.47
2022-12-25T03:00:35.211Z,97520.22
2022-12-25T03:03:25.186Z,97518.25
2022-12-25T03:06:13.252Z,97522.91
2022-12-25T03:08:43.646Z,97517.50
2022-12-25T03:11:31.773Z,97523.56
2022-12-25T03:14:22.704Z,97531.50
2022-12-25T03:16:54.360Z,97537.03
2022-12-25T03:19:50.473Z,97534.03
2022-12-25T03:22:42.665Z,97535.53
2022-12-25T03:25:28.784Z,97537.31
2022-12-25T03:28:08.060Z,97535.25
2022-12-25T03:35:09.058Z,97543.47
2022-12-25T03:42:18.255Z,97540.25
2022-12-25T03:45:51.876Z,97533.47
2022-12-25T03:48:47.000Z,97549.47
2022-12-25T03:51:44.728Z,97551.66
2022-12-25T03:55:01.342Z,97537.94
2022-12-25T03:58:02.516Z,97551.31
2022-12-25T04:01:03.077Z,97553.84
2022-12-25T04:07:39.445Z,97563.66
2022-12-25T04:10:26.929Z,97562.00
2022-12-25T04:13:33.492Z,97572.34
2022-12-25T04:16:53.120Z,97581.88
2022-12-25T04:32:44.655Z,97593.84
2022-12-25T04:35:31.384Z,97594.47
2022-12-25T04:41:13.493Z,97603.78
2022-12-25T04:49:16.332Z,97606.50
2022-12-25T04:51:43.410Z,97613.31
2022-12-25T04:54:10.611Z,97614.34
2022-12-25T04:56:43.433Z,97625.63
2022-12-25T04:59:12.648Z,97637.09
2022-12-25T05:01:40.240Z,97634.81
2022-12-25T05:04:10.592Z,97634.13
2022-12-25T05:06:37.587Z,97629.31
2022-12-25T05:09:05.518Z,97639.13
2022-12-25T05:11:33.310Z,97631.78
2022-12-25T05:14:00.389Z,97647.44
2022-12-25T05:16:30.587Z,97651.59
2022-12-25T05:18:58.380Z,97650.25
2022-12-25T05:21:25.325Z,97652.88
2022-12-25T05:23:53.586Z,97660.00
2022-12-25T05:26:25.951Z,97656.81
2022-12-25T05:28:53.345Z,97664.66
2022-12-25T05:31:21.014Z,97661.69
2022-12-25T05:33:53.584Z,97664.75
2022-12-25T05:36:20.971Z,97661.84
2022-12-25T05:38:48.774Z,97673.84
2022-12-25T05:41:15.672Z,97671.22
2022-12-25T05:43:43.009Z,97683.22
2022-12-25T05:46:11.667Z,97686.38
2022-12-25T05:48:39.392Z,97682.59
2022-12-25T05:51:23.873Z,97692.53
2022-12-25T05:53:53.260Z,97699.44
2022-12-25T05:56:23.635Z,97694.16
2022-12-25T05:58:51.570Z,97709.63
2022-12-25T06:01:26.144Z,97706.03
2022-12-25T06:03:56.173Z,97721.47
2022-12-25T06:06:23.197Z,97716.59
2022-12-25T06:08:50.792Z,97714.59
2022-12-25T06:11:17.912Z,97715.69
2022-12-25T06:13:49.744Z,97722.81
2022-12-25T06:16:17.067Z,97724.16
2022-12-25T06:18:47.554Z,97727.84
2022-12-25T06:21:16.150Z,97732.31
2022-12-25T06:23:43.823Z,97731.63
2022-12-25T06:26:14.607Z,97738.41
2022-12-25T06:28:41.941Z,97728.25
2022-12-25T06:31:11.681Z,97736.63
2022-12-25T06:33:39.332Z,97749.47
2022-12-25T06:36:08.648Z,97745.94
2022-12-25T06:38:35.749Z,97747.97
2022-12-25T06:41:11.854Z,97742.09
2022-12-25T06:43:39.209Z,97749.63
2022-12-25T06:46:11.443Z,97746.59
2022-12-25T06:48:48.143Z,97747.19
2022-12-25T06:51:16.906Z,97758.63
2022-12-25T06:53:48.247Z,97756.03
2022-12-25T06:56:18.135Z,97756.84
2022-12-25T06:58:47.642Z,97765.19
2022-12-25T07:01:26.210Z,97756.84
2022-12-25T07:04:01.679Z,97765.25
2022-12-25T07:06:29.071Z,97770.28
2022-12-25T07:08:56.831Z,97770.59
2022-12-25T07:11:24.107Z,97766.09
2022-12-25T07:13:51.386Z,97771.81
2022-12-25T07:16:19.461Z,97769.97
2022-12-25T07:18:46.472Z,97776.09
2022-12-25T07:21:17.109Z,97779.72
2022-12-25T07:23:45.777Z,97782.91
2022-12-25T07:26:13.483Z,97783.72
2022-12-25T07:28:44.140Z,97784.66
2022-12-25T07:31:14.419Z,97794.22
2022-12-25T07:33:42.468Z,97796.59
2022-12-25T07:36:12.503Z,97797.16
2022-12-25T07:38:41.768Z,97800.53
2022-12-25T07:41:10.716Z,97805.59
2022-12-25T07:43:37.987Z,97810.47
2022-12-25T07:46:05.427Z,97813.81
2022-12-25T07:48:32.492Z,97823.81
2022-12-25T07:51:01.536Z,97822.66
2022-12-25T07:53:29.010Z,97826.63
2022-12-25T07:56:02.023Z,97824.28
2022-12-25T07:58:30.186Z,97839.91
2022-12-25T08:01:07.217Z,97851.22
2022-12-25T08:03:35.484Z,97848.72
2022-12-25T08:06:08.748Z,97850.47
2022-12-25T08:08:37.500Z,97857.88
2022-12-25T08:11:07.127Z,97861.75
2022-12-25T08:13:34.716Z,97859.97
2022-12-25T08:16:04.437Z,97858.03
2022-12-25T08:18:32.644Z,97863.94
2022-12-25T08:21:12.805Z,97861.06
2022-12-25T08:23:44.189Z,97872.31
2022-12-25T08:26:17.601Z,97879.97
2022-12-25T08:28:44.604Z,97875.50
2022-12-25T08:31:17.034Z,97879.81
2022-12-25T08:33:44.731Z,97879.22
2022-12-25T08:36:13.145Z,97878.53
2022-12-25T08:38:41.659Z,97876.69
2022-12-25T08:41:09.351Z,97872.91
2022-12-25T08:43:36.686Z,97875.31
2022-12-25T08:46:04.377Z,97861.53
2022-12-25T08:48:31.326Z,97852.94
2022-12-25T08:50:58.520Z,97847.31
2022-12-25T08:53:25.977Z,97836.75
2022-12-25T08:56:06.742Z,97837.47
2022-12-25T08:58:33.871Z,97838.75
2022-12-25T09:01:01.700Z,97838.59
2022-12-25T09:03:28.958Z,97828.13
2022-12-25T09:05:55.768Z,97826.28
2022-12-25T09:08:23.168Z,97832.56
2022-12-25T09:10:50.409Z,97841.47
2022-12-25T09:13:17.999Z,97839.47
2022-12-25T09:15:45.026Z,97839.03
2022-12-25T09:18:12.118Z,97845.13
2022-12-25T09:20:39.061Z,97841.72
2022-12-25T09:23:13.333Z,97849.91
2022-12-25T09:25:41.022Z,97845.06
2022-12-25T09:28:07.803Z,97845.78
2022-12-25T09:30:34.769Z,97844.72
2022-12-25T09:33:01.606Z,97838.31
2022-12-25T09:35:28.633Z,97851.22
2022-12-25T09:37:55.525Z,97842.06
2022-12-25T09:40:24.430Z,97842.41
2022-12-25T09:42:54.971Z,97839.13
2022-12-25T09:45:30.072Z,97837.44
2022-12-25T09:47:57.465Z,97843.25
2022-12-25T09:50:28.798Z,97841.72
2022-12-25T09:53:04.528Z,97838.13
2022-12-25T09:55:34.284Z,97833.84
2022-12-25T09:58:09.210Z,97842.22
2022-12-25T10:00:40.959Z,97830.28
2022-12-25T10:03:18.555Z,97828.13
2022-12-25T10:06:00.644Z,97835.03
2022-12-25T10:08:47.575Z,97838.59
2022-12-25T10:11:51.643Z,97832.41
2022-12-25T10:14:42.867Z,97846.22
2022-12-25T10:17:15.652Z,97845.41
2022-12-25T10:19:53.271Z,97835.72
2022-12-25T10:22:30.001Z,97840.16
2022-12-25T10:24:59.994Z,97842.91
2022-12-25T10:27:41.558Z,97853.38
2022-12-25T10:30:20.280Z,97849.81
2022-12-25T10:32:48.056Z,97846.00
2022-12-25T10:35:21.317Z,97846.00
2022-12-25T10:38:15.982Z,97842.22
2022-12-25T10:41:00.994Z,97840.53
2022-12-25T10:43:43.359Z,97829.34
2022-12-25T10:46:15.878Z,97826.25
2022-12-25T10:48:47.876Z,97827.47
2022-12-25T10:51:26.100Z,97830.38
2022-12-25T10:53:52.982Z,97838.75
2022-12-25T10:56:22.314Z,97825.91
2022-12-25T10:58:51.803Z,97820.69
2022-12-25T11:01:19.045Z,97828.25
2022-12-25T11:03:51.775Z,97807.75
2022-12-25T11:09:20.028Z,97820.22
2022-12-25T11:11:48.687Z,97822.13
2022-12-25T11:14:21.319Z,97817.97
2022-12-25T11:16:49.252Z,97817.22
2022-12-25T11:19:24.623Z,97810.78
2022-12-25T11:21:53.992Z,97817.44
2022-12-25T11:24:25.953Z,97807.41
2022-12-25T11:26:56.164Z,97809.53
2022-12-25T11:29:44.502Z,97813.19
2022-12-25T11:32:28.478Z,97816.63
2022-12-25T11:34:56.343Z,97819.59
2022-12-25T11:37:37.938Z,97825.19
2022-12-25T11:40:06.625Z,97813.88
2022-12-25T11:42:40.758Z,97813.63
2022-12-25T11:45:12.713Z,97805.41
2022-12-25T11:47:46.413Z,97801.00
2022-12-25T11:50:21.685Z,97797.88
2022-12-25T11:52:50.556Z,97805.78
2022-12-25T11:55:24.178Z,97814.13
2022-12-25T11:57:59.262Z,97820.06
2022-12-25T12:00:27.858Z,97809.41
2022-12-25T12:02:59.437Z,97827.13
2022-12-25T12:05:40.789Z,97821.53
2022-12-25T12:08:47.817Z,97820.56
2022-12-25T12:11:25.266Z,97819.13
2022-12-25T12:14:18.238Z,97815.53
2022-12-25T12:16:47.916Z,97822.84
2022-12-25T12:19:28.682Z,97823.91
2022-12-25T12:22:05.472Z,97823.91
2022-12-25T12:24:44.486Z,97823.13
2022-12-25T12:27:25.831Z,97824.34
2022-12-25T12:30:06.652Z,97824.56
2022-12-25T12:32:52.966Z,97815.91
2022-12-25T12:35:32.947Z,97821.88
2022-12-25T12:38:08.557Z,97835.78
2022-12-25T12:40:58.267Z,97833.41
2022-12-25T12:43:43.188Z,97836.88
2022-12-25T12:46:51.528Z,97834.59
2022-12-25T12:49:32.103Z,97845.50
2022-12-25T12:52:21.648Z,97844.59
2022-12-25T12:55:13.420Z,97837.19
2022-12-25T12:57:41.102Z,97844.13
2022-12-25T13:00:13.073Z,97848.78
2022-12-25T13:03:01.396Z,97859.50
2022-12-25T13:06:03.934Z,97856.28
2022-12-25T13:08:51.929Z,97860.22
2022-12-25T13:11:25.122Z,97863.38
2022-12-25T13:14:03.407Z,97863.22
2022-12-25T13:16:42.952Z,97867.66
2022-12-25T13:19:18.099Z,97852.94
2022-12-25T13:21:59.097Z,97847.94
2022-12-25T13:24:29.280Z,97860.25
2022-12-25T13:26:56.578Z,97855.72
2022-12-25T13:29:39.105Z,97852.84
2022-12-25T13:32:14.323Z,97856.69
2022-12-25T13:34:44.447Z,97864.09
2022-12-25T13:37:17.331Z,97866.47
2022-12-25T13:39:52.523Z,97863.59
2022-12-25T13:42:24.087Z,97860.97
2022-12-25T13:45:00.899Z,97864.81
2022-12-25T13:47:38.790Z,97870.56
2022-12-25T13:50:20.717Z,97866.22
2022-12-25T13:52:47.610Z,97872.31
2022-12-25T13:55:19.650Z,97868.84
2022-12-25T13:57:58.235Z,97879.59
2022-12-25T14:00:45.285Z,97875.53
2022-12-25T14:03:23.207Z,97885.34
2022-12-25T14:06:04.635Z,97884.13
2022-12-25T14:08:34.003Z,97882.44
2022-12-25T14:11:04.726Z,97887.06
2022-12-25T14:13:35.819Z,97882.53
2022-12-25T14:16:03.733Z,97895.06
2022-12-25T14:18:31.564Z,97897.22
2022-12-25T14:21:44.406Z,97898.34
2022-12-25T14:24:15.516Z,97897.13
2022-12-25T14:26:43.454Z,97893.75
2022-12-25T14:29:17.717Z,97898.88
2022-12-25T14:31:47.557Z,97904.34
2022-12-25T14:34:23.450Z,97910.91
2022-12-25T14:36:52.198Z,97903.38
2022-12-25T14:39:34.441Z,97904.31
2022-12-25T14:42:12.753Z,97902.78
2022-12-25T14:44:41.493Z,97916.34
2022-12-25T14:47:11.728Z,97926.97
2022-12-25T14:49:39.303Z,97925.75
2022-12-25T14:52:27.824Z,97917.81
2022-12-25T14:54:59.927Z,97918.03
2022-12-25T14:57:41.015Z,97919.81
2022-12-25T15:00:37.151Z,97918.56
2022-12-25T15:03:26.931Z,97936.41
2022-12-25T15:06:02.827Z,97945.22
2022-12-25T15:08:32.110Z,97938.47
2022-12-25T15:11:03.548Z,97949.44
2022-12-25T15:16:51.831Z,97952.63
2022-12-25T15:19:35.029Z,97957.47
2022-12-25T15:22:04.654Z,97960.69
2022-12-25T15:24:31.753Z,97961.72
2022-12-25T15:27:00.840Z,97961.00
2022-12-25T15:32:21.649Z,97963.09
2022-12-25T15:34:50.315Z,97970.91
2022-12-25T15:37:20.786Z,97980.22
2022-12-25T15:40:21.244Z,97971.41
2022-12-25T15:42:56.504Z,97980.81
2022-12-25T15:45:27.664Z,97981.06
2022-12-25T15:47:55.034Z,97981.75
2022-12-25T15:50:23.651Z,97984.72
2022-12-25T15:52:51.062Z,97990.13
2022-12-25T15:55:21.062Z,97993.66
2022-12-25T15:57:48.747Z,97988.97
2022-12-25T16:00:26.338Z,97994.44
2022-12-25T16:02:57.688Z,97994.34
2022-12-25T16:05:25.227Z,97994.25
2022-12-25T16:08:05.845Z,97992.75
2022-12-25T16:10:38.448Z,97999.97
2022-12-25T16:13:13.093Z,98004.00
2022-12-25T16:15:52.301Z,98001.91
2022-12-25T16:18:26.582Z,98002.31
2022-12-25T16:20:58.535Z,98007.75
2022-12-25T16:23:26.677Z,98008.97
2022-12-25T16:25:54.390Z,98002.25
2022-12-25T16:28:22.083Z,98001.91
2022-12-25T16:30:49.516Z,98014.47
2022-12-25T16:33:16.407Z,98015.47
2022-12-25T16:35:44.389Z,98022.81
2022-12-25T16:38:12.203Z,98014.94
2022-12-25T16:40:39.147Z,98017.47
2022-12-25T16:43:06.458Z,98015.34
2022-12-25T16:45:38.688Z,98015.56
2022-12-25T16:48:07.238Z,98026.56
2022-12-25T16:50:34.656Z,98023.75
2022-12-25T16:53:02.526Z,98027.56
2022-12-25T16:55:30.430Z,98036.28
2022-12-25T16:57:57.898Z,98040.03
2022-12-25T17:00:25.397Z,98041.31
2022-12-25T17:02:53.760Z,98028.25
2022-12-25T17:05:23.320Z,98035.22
2022-12-25T17:07:50.960Z,98047.50
2022-12-25T17:10:18.396Z,98046.81
2022-12-25T17:12:46.479Z,98046.13
2022-12-25T17:15:13.644Z,98053.72
2022-12-25T17:17:40.606Z,98058.38
2022-12-25T17:20:08.485Z,98057.53
2022-12-25T17:22:35.797Z,98059.44
2022-12-25T17:25:02.922Z,98059.09
2022-12-25T17:27:29.912Z,98066.25
2022-12-25T17:29:57.249Z,98064.84
2022-12-25T17:32:24.496Z,98074.31
2022-12-25T17:34:51.458Z,98066.41
2022-12-25T17:37:18.570Z,98067.28
2022-12-25T17:39:45.359Z,98072.97
2022-12-25T17:42:12.586Z,98075.50
2022-12-25T17:44:39.520Z,98080.44
2022-12-25T17:47:06.632Z,98083.44
2022-12-25T17:49:33.677Z,98080.13
2022-12-25T17:52:00.736Z,98089.91
2022-12-25T17:54:27.709Z,98096.84
2022-12-25T17:56:54.689Z,98107.31
2022-12-25T17:59:28.604Z,98112.56
2022-12-25T18:01:56.043Z,98101.53
2022-12-25T18:04:23.217Z,98108.81
2022-12-25T18:06:50.701Z,98108.19
2022-12-25T18:09:24.001Z,98101.28
2022-12-25T18:11:52.464Z,98109.22
2022-12-25T18:14:33.929Z,98110.56
2022-12-25T18:17:11.785Z,98105.19
2022-12-25T18:19:51.671Z,98108.81
2022-12-25T18:22:23.739Z,98108.97
2022-12-25T18:24:52.747Z,98115.97
2022-12-25T18:27:43.457Z,98114.53
2022-12-25T18:30:12.215Z,98114.06
2022-12-25T18:32:39.627Z,98109.84
2022-12-25T18:35:08.215Z,98113.34
2022-12-25T18:37:40.149Z,98121.91
2022-12-25T18:40:08.530Z,98127.25
2022-12-25T18:42:41.451Z,98114.53
2022-12-25T18:45:11.778Z,98112.81
2022-12-25T18:47:39.924Z,98119.16
2022-12-25T18:50:13.216Z,98119.13
2022-12-25T18:52:47.930Z,98124.25
2022-12-25T18:55:18.134Z,98119.03
2022-12-25T18:57:46.356Z,98115.50
2022-12-25T19:00:14.726Z,98115.69
2022-12-25T19:02:45.284Z,98116.75
2022-12-25T19:05:13.215Z,98118.88
2022-12-25T19:07:40.831Z,98110.13
2022-12-25T19:10:09.022Z,98119.56
2022-12-25T19:12:40.055Z,98116.13
2022-12-25T19:15:08.769Z,98111.78
2022-12-25T19:17:37.354Z,98112.69
2022-12-25T19:20:06.638Z,98114.69
2022-12-25T19:22:34.083Z,98132.34
2022-12-25T19:25:05.351Z,98131.84
2022-12-25T19:30:17.324Z,98111.41
2022-12-25T19:32:53.230Z,98114.19
2022-12-25T19:35:21.621Z,98121.00
2022-12-25T19:37:49.393Z,98110.56
2022-12-25T19:40:16.767Z,98115.97
2022-12-25T19:42:45.302Z,98109.47
2022-12-25T19:45:12.683Z,98124.53
2022-12-25T19:47:39.980Z,98133.88
2022-12-25T19:50:07.536Z,98130.63
2022-12-25T19:52:34.366Z,98117.66
2022-12-25T19:55:01.270Z,98113.66
2022-12-25T19:57:28.286Z,98118.81
2022-12-25T19:59:55.130Z,98111.78
2022-12-25T20:02:22.127Z,98120.38
2022-12-25T20:04:49.279Z,98127.59
2022-12-25T20:07:16.341Z,98125.94
2022-12-25T20:09:43.915Z,98131.06
2022-12-25T20:12:11.569Z,98126.97
2022-12-25T20:14:38.982Z,98132.16
2022-12-25T20:17:10.730Z,98135.38
2022-12-25T20:19:41.010Z,98130.06
2022-12-25T20:22:08.114Z,98130.00
2022-12-25T20:24:37.602Z,98135.13
2022-12-25T20:27:05.231Z,98135.91
2022-12-25T20:29:33.335Z,98130.38
2022-12-25T20:32:00.209Z,98135.13
2022-12-25T20:34:27.936Z,98141.56
2022-12-25T20:36:55.659Z,98144.09
2022-12-25T20:39:25.380Z,98151.25
2022-12-25T20:41:53.642Z,98154.78
2022-12-25T20:44:24.233Z,98142.81
2022-12-25T20:46:51.700Z,98158.34
2022-12-25T20:49:18.898Z,98151.34
2022-12-25T20:51:45.999Z,98139.97
2022-12-25T20:54:16.207Z,98154.91
2022-12-25T20:56:43.587Z,98152.03
2022-12-25T20:59:12.554Z,98155.25
2022-12-25T21:01:39.722Z,98162.50
2022-12-25T21:04:11.601Z,98167.91
2022-12-25T21:06:43.495Z,98167.41
2022-12-25T21:09:11.713Z,98165.56
2022-12-25T21:11:39.430Z,98174.28
2022-12-25T21:14:07.880Z,98169.25
2022-12-25T21:16:36.194Z,98174.56
2022-12-25T21:19:04.589Z,98176.41
2022-12-25T21:21:32.258Z,98178.16
2022-12-25T21:24:01.607Z,98177.69
2022-12-25T21:26:37.194Z,98175.88
2022-12-25T21:29:09.823Z,98181.84
2022-12-25T21:32:05.896Z,98184.22
2022-12-25T21:34:36.748Z,98184.34
2022-12-25T21:37:04.740Z,98183.81
2022-12-25T21:39:35.867Z,98180.72
2022-12-25T21:42:11.962Z,98180.00
2022-12-25T21:44:40.339Z,98177.56
2022-12-25T21:48:01.851Z,98178.31
2022-12-25T21:50:16.408Z,98178.97
2022-12-25T21:52:43.765Z,98186.84
2022-12-25T21:55:10.896Z,98188.88
2022-12-25T21:57:37.975Z,98175.00
2022-12-25T22:00:06.199Z,98170.25
2022-12-25T22:02:33.435Z,98171.16
2022-12-25T22:05:00.697Z,98158.09
2022-12-25T22:07:28.107Z,98152.78
2022-12-25T22:09:55.696Z,98164.09
2022-12-25T22:12:42.237Z,98161.16
2022-12-25T22:15:11.150Z,98163.81
2022-12-25T22:17:59.397Z,98159.69
2022-12-25T22:20:30.794Z,98166.75
2022-12-25T22:22:58.818Z,98166.66
2022-12-25T22:25:26.165Z,98166.59
2022-12-25T22:27:54.104Z,98171.00
2022-12-25T22:30:25.418Z,98154.91
2022-12-25T22:32:52.850Z,98155.97
2022-12-25T22:35:21.413Z,98153.03
2022-12-25T22:37:49.957Z,98163.50
2022-12-25T22:40:19.208Z,98165.28
2022-12-25T22:42:46.502Z,98163.69
2022-12-25T22:45:13.843Z,98164.72
2022-12-25T22:47:41.134Z,98163.09
2022-12-25T22:50:09.263Z,98160.41
2022-12-25T22:52:37.154Z,98154.38
2022-12-25T22:55:06.058Z,98160.50
2022-12-25T22:57:33.077Z,98157.03
2022-12-25T23:00:00.278Z,98157.13
2022-12-25T23:02:27.407Z,98159.06
2022-12-25T23:04:54.634Z,98151.28
2022-12-25T23:07:21.607Z,98151.94
2022-12-25T23:09:48.880Z,98151.75
2022-12-25T23:12:34.531Z,98151.75
2022-12-25T23:15:01.719Z,98151.09
2022-12-25T23:17:47.657Z,98149.31
2022-12-25T23:20:33.905Z,98145.84
2022-12-25T23:23:20.063Z,98146.75
2022-12-25T23:26:05.623Z,98147.00
2022-12-25T23:28:51.214Z,98154.03
2022-12-25T23:31:20.398Z,98161.09
2022-12-25T23:33:47.338Z,98171.34
2022-12-25T23:36:14.312Z,98157.56
2022-12-25T23:38:41.706Z,98158.44
2022-12-25T23:41:08.710Z,98169.56
2022-12-25T23:43:35.567Z,98166.19
2022-12-25T23:46:02.564Z,98169.66
2022-12-25T23:48:29.557Z,98185.06
2022-12-25T23:50:56.868Z,98186.75
2022-12-25T23:53:23.670Z,98197.00
2022-12-25T23:55:55.560Z,98182.72
2022-12-25T23:58:24.497Z,98196.66
